Latest Coastal Weather Observations for Point Stuart

IDD60701

Issued at 4:21 am CST Friday 23 February 2024 (issued every 10 minutes, with the page automatically refreshed every 10 minutes)

About coastal observations | Map of coastal stations | Coastal observations for NT | Marine services | Other Formats
Station Details ID: 014254 Name: POINT STUART Lat: -12.24 Lon: 131.88 Height: 1.0 m
Data from the previous 72 hours. | See also: Recent months at Point Stuart
Date/Time
CST
Wind Sea
Height
m
Swell Vis
km
Cloud Weather Temp
°C
Press
MSL
hPa
Rain since
9am
mm
Dir  Spd
kts
Gust
kts
Height
m
Period
s
Dir
23/04:00am WSW 6 7 - - - - - - - 27.6 1009.0 0.0
23/03:30am W 8 10 - - - - - - - 27.8 1008.9 0.0
23/03:00am WSW 6 7 - - - - - - - 27.8 1009.3 0.0
23/02:30am WSW 7 8 - - - - - - - 27.9 1009.6 0.0
23/02:00am WSW 7 9 - - - - - - - 28.1 1009.8 0.0
23/01:30am WSW 8 10 - - - - - - - 28.2 1010.0 0.0
23/01:00am WSW 9 11 - - - - - - - 28.4 1010.3 0.0
23/12:30am WSW 7 8 - - - - - - - 28.4 1010.7 0.0
23/12:00am WSW 6 8 - - - - - - - 28.9 1010.8 0.0
 
Date/Time
CST
Wind Sea
Height
m
Swell Vis
km
Cloud Weather Temp
°C
Press
MSL
hPa
Rain since
9am
mm
Dir  Spd
kts
Gust
kts
Height
m
Period
s
Dir
22/11:30pm W 10 12 - - - - - - - 29.3 1010.9 0.0
22/11:00pm WNW 9 11 - - - - - - - 29.3 1011.1 0.0
22/10:30pm WNW 9 12 - - - - - - - 29.2 1010.8 0.0
22/10:00pm WNW 11 15 - - - - - - - 29.4 1010.5 0.0
22/09:30pm WNW 12 15 - - - - - - - 29.6 1010.5 0.0
22/09:00pm WNW 12 16 - - - - - - - 29.4 1010.2 0.0
22/08:30pm NW 12 16 - - - - - - - 29.6 1010.0 0.0
22/08:00pm NW 10 15 - - - - - - - 29.5 1009.7 0.0
22/07:30pm NW 9 14 - - - - - - - 29.6 1009.3 0.0
22/07:00pm NNW 7 12 - - - - - - - 29.8 1009.0 0.0
22/06:30pm NNW 7 13 - - - - - - - 30.3 1008.6 0.0
22/06:00pm NW 9 14 - - - - - - - 31.0 1008.3 0.0
22/05:30pm NW 10 15 - - - - - - - 32.8 1007.7 0.0
22/05:00pm NW 10 14 - - - - - - - 33.4 1007.4 0.0
22/04:30pm NNW 8 13 - - - - - - - 33.4 1008.0 0.0
22/04:00pm NNW 6 10 - - - - - - - 33.5 1008.1 0.0
22/03:30pm NNW 6 11 - - - - - - - 33.7 1008.1 0.0
22/03:00pm NNW 7 12 - - - - - - - 33.4 1008.3 0.0
22/02:30pm NNW 8 13 - - - - - - - 33.7 1008.5 0.0
22/02:00pm NW 7 12 - - - - - - - 33.5 1009.0 0.0
22/01:30pm NW 9 12 - - - - - - - 33.1 1009.5 0.0
22/01:00pm NW 9 12 - - - - - - - 32.4 1010.0 0.0
22/12:30pm NW 8 12 - - - - - - - 32.1 1010.2 0.0
22/12:00pm NW 8 11 - - - - - - - 32.4 1010.7 0.0
22/11:30am NW 8 11 - - - - - - - 31.6 1011.1 0.0
22/11:00am NW 7 10 - - - - - - - 31.8 1011.2 0.0
22/10:30am NW 7 10 - - - - - - - 30.5 1011.4 0.0
22/10:00am NW 8 10 - - - - - - - 30.6 1011.6 0.0
22/09:30am NW 7 11 - - - - - - - 30.9 1011.7 0.0
22/09:00am NW 7 11 - - - - - - - 30.5 1011.7 0.0
22/08:30am NW 7 11 - - - - - - - 29.5 1011.5 0.0
22/08:00am NW 7 10 - - - - - - - 28.7 1011.2 0.0
22/07:30am NW 7 9 - - - - - - - 28.0 1010.9 0.0
22/07:00am NW 7 10 - - - - - - - 27.7 1010.7 0.0
22/06:30am NW 8 11 - - - - - - - 27.7 1010.3 0.0
22/06:00am NW 7 9 - - - - - - - 27.7 1010.4 0.0
22/05:30am NW 7 9 - - - - - - - 27.8 1010.2 0.0
22/05:00am WNW 7 9 - - - - - - - 27.9 1009.8 0.0
22/04:30am NW 7 9 - - - - - - - 28.1 1009.6 0.0
22/04:00am NW 9 12 - - - - - - - 28.1 1009.7 0.0
22/03:30am NW 8 9 - - - - - - - 28.2 1009.7 0.0
22/03:00am NW 8 10 - - - - - - - 28.3 1009.9 0.0
22/02:30am NW 7 9 - - - - - - - 28.2 1009.8 0.0
22/02:00am WNW 9 10 - - - - - - - 28.5 1010.0 0.0
22/01:30am WNW 10 12 - - - - - - - 28.6 1010.1 0.0
22/01:00am NW 10 12 - - - - - - - 28.5 1010.3 0.0
22/12:30am NW 9 13 - - - - - - - 28.6 1010.6 0.0
22/12:00am NW 9 12 - - - - - - - 28.6 1010.5 0.0
 
Date/Time
CST
Wind Sea
Height
m
Swell Vis
km
Cloud Weather Temp
°C
Press
MSL
hPa
Rain since
9am
mm
Dir  Spd
kts
Gust
kts
Height
m
Period
s
Dir
21/11:30pm NW 10 16 - - - - - - - 28.9 1010.4 0.0
21/11:00pm NW 11 14 - - - - - - - 29.0 1010.4 0.0
21/10:30pm NNW 8 13 - - - - - - - 29.5 1010.0 0.0
21/10:00pm NNW 4 7 - - - - - - - 29.3 1009.8 0.0
21/09:30pm N 4 5 - - - - - - - 29.3 1009.6 0.0
21/09:00pm N 5 8 - - - - - - - 29.4 1009.5 0.0
21/08:30pm N 4 7 - - - - - - - 29.4 1009.2 0.0
21/08:00pm NNW 3 5 - - - - - - - 29.5 1008.4 0.0
21/07:30pm N 4 6 - - - - - - - 29.4 1007.8 0.0
21/07:00pm NNW 5 7 - - - - - - - 29.6 1007.4 0.0
21/06:30pm NNW 6 10 - - - - - - - 30.2 1007.2 0.0
21/06:00pm NNW 7 10 - - - - - - - 30.7 1007.3 0.0
21/05:30pm NNW 7 11 - - - - - - - 31.9 1006.9 0.0
21/05:00pm NNW 6 11 - - - - - - - 31.3 1006.6 0.0
21/04:30pm N 6 10 - - - - - - - 32.4 1006.4 0.0
21/04:00pm NNW 6 11 - - - - - - - 32.9 1006.5 0.0
21/03:30pm NNW 7 13 - - - - - - - 33.1 1007.1 0.0
21/03:00pm NNW 7 12 - - - - - - - 32.6 1007.3 0.0
21/02:30pm NNW 7 9 - - - - - - - 32.6 1007.4 0.0
21/02:00pm NNW 6 9 - - - - - - - 32.8 1007.9 0.0
21/01:30pm NNW 7 12 - - - - - - - 32.5 1008.5 0.0
21/01:00pm NNW 7 12 - - - - - - - 32.9 1008.8 0.0
21/12:30pm NNW 7 11 - - - - - - - 32.5 1009.2 0.0
21/12:00pm NNW 7 12 - - - - - - - 32.5 1009.6 0.0
21/11:30am NNW 7 11 - - - - - - - 31.6 1009.8 0.0
21/11:00am NNW 5 9 - - - - - - - 32.1 1010.0 0.0
21/10:30am NNW 6 10 - - - - - - - 31.8 1010.2 0.0
21/10:00am NNW 6 9 - - - - - - - 31.6 1010.3 0.0
21/09:30am N 4 9 - - - - - - - 31.2 1010.2 0.0
21/09:00am N 5 9 - - - - - - - 30.7 1010.0 -
21/08:30am N 5 8 - - - - - - - 30.1 1009.8 -
21/07:30am N 3 7 - - - - - - - 28.4 1009.0 1.4
21/07:00am NNW 5 7 - - - - - - - 27.8 1008.8 1.4
21/06:30am NNW 4 7 - - - - - - - 27.9 1008.4 1.4
21/06:00am NNW 5 9 - - - - - - - 27.9 1008.4 1.4
21/05:30am NNW 4 8 - - - - - - - 27.9 1008.2 1.4
21/05:00am NNW 4 7 - - - - - - - 28.0 1007.9 1.4
21/04:30am NNW 4 7 - - - - - - - 27.9 1007.6 1.4
21/04:00am N 4 7 - - - - - - - 27.9 1007.8 1.4
21/03:30am NNW 5 8 - - - - - - - 28.0 1008.0 1.4
21/03:00am NNW 5 8 - - - - - - - 28.2 1008.1 1.4
21/02:30am NNW 4 8 - - - - - - - 27.9 1008.7 1.4
21/02:00am NNW 6 8 - - - - - - - 27.8 1009.0 1.4
21/01:30am NNW 4 7 - - - - - - - 28.1 1009.3 1.4
21/01:00am NNW 7 10 - - - - - - - 28.1 1009.7 1.4
21/12:30am NNW 7 9 - - - - - - - 28.0 1009.8 1.4
21/12:00am NNW 6 10 - - - - - - - 28.0 1009.9 1.4
 
Date/Time
CST
Wind Sea
Height
m
Swell Vis
km
Cloud Weather Temp
°C
Press
MSL
hPa
Rain since
9am
mm
Dir  Spd
kts
Gust
kts
Height
m
Period
s
Dir
20/11:30pm NNW 5 8 - - - - - - - 27.8 1010.0 1.4
20/11:00pm NNW 5 7 - - - - - - - 27.5 1010.0 1.4
20/10:30pm NW 6 8 - - - - - - - 27.3 1009.9 1.4
20/10:00pm NW 3 5 - - - - - - - 27.4 1009.6 1.4
20/09:30pm NNW 3 4 - - - - - - - 27.4 1009.3 1.4
20/09:00pm NW 4 6 - - - - - - - 27.3 1009.0 1.4
20/08:30pm NW 10 12 - - - - - - - 27.1 1008.7 1.4
20/08:00pm NW 10 13 - - - - - - - 26.6 1008.3 1.4
20/07:30pm WNW 12 17 - - - - - - - 27.3 1008.2 0.2
20/07:00pm WNW 13 18 - - - - - - - 27.4 1007.6 0.2
20/06:30pm WNW 17 22 - - - - - - - 28.3 1007.2 0.2
20/06:00pm NNW 7 14 - - - - - - - 29.5 1006.7 0.2
20/05:30pm N 6 11 - - - - - - - 30.1 1006.5 0.2
20/05:00pm N 6 11 - - - - - - - 31.1 1006.2 0.2
20/04:30pm N 8 13 - - - - - - - 31.0 1006.2 0.2
20/04:00pm N 7 11 - - - - - - - 30.9 1006.3 0.2
20/03:30pm N 7 12 - - - - - - - 31.6 1006.5 0.2
20/03:00pm N 6 12 - - - - - - - 32.1 1006.7 0.2
20/02:30pm NNW 6 12 - - - - - - - 32.2 1007.3 0.2
20/02:00pm NNW 6 11 - - - - - - - 32.0 1007.2 0.2
20/01:30pm N 5 9 - - - - - - - 32.2 1007.6 0.2
20/01:00pm NNW 5 9 - - - - - - - 32.4 1008.3 0.2
20/12:30pm NNW 7 13 - - - - - - - 32.5 1008.8 0.2
20/12:00pm NNW 7 10 - - - - - - - 32.3 1009.5 0.2
20/11:30am NNW 7 12 - - - - - - - 32.0 1010.0 0.2
20/11:00am NNW 8 12 - - - - - - - 31.5 1010.3 0.2
20/10:30am NW 7 12 - - - - - - - 32.1 1010.5 0.2
20/10:00am NW 9 13 - - - - - - - 31.2 1010.3 0.0
20/09:30am NNW 7 11 - - - - - - - 30.8 1009.9 0.0
20/09:00am NW 9 13 - - - - - - - 30.0 1009.5 7.2
20/08:30am NNW 8 11 - - - - - - - 29.5 1009.3 7.2
20/08:00am NW 9 13 - - - - - - - 28.7 1009.0 7.2
20/07:30am NNW 9 13 - - - - - - - 28.2 1008.7 7.2
20/07:00am NNW 7 12 - - - - - - - 28.0 1008.3 7.2
20/06:30am NW 10 14 - - - - - - - 27.8 1007.9 7.2
20/06:00am NW 11 15 - - - - - - - 27.7 1007.8 7.2
20/05:30am NW 10 14 - - - - - - - 27.7 1007.8 7.2
20/05:00am NW 11 15 - - - - - - - 27.7 1007.7 7.2
20/04:30am NW 11 14 - - - - - - - 27.5 1007.5 7.2

Other formats

Comma delimited format used in spreadsheet applications
http://www.bom.gov.au/fwo/IDD60701/IDD60701.94127.axf

JavaScript Object Notation format (JSON) in row-major order
http://www.bom.gov.au/fwo/IDD60701/IDD60701.94127.json

Data quality

Most of these data are generated automatically and are frequently updated. Quality checks on data are not normally performed. It is possible for incorrect values to appear. Refer to information at About Latest Weather Observations and please check the disclaimer before using these data.